sensor_id;sensor_type;location;lat;lon;timestamp;P1;durP1;ratioP1;P2;durP2;ratioP2
10096;SDS011;5087;42.662;23.466;2023-05-07T00:00:59;0.00;;;0.00;;
10096;SDS011;5087;42.662;23.466;2023-05-07T00:03:26;0.00;;;0.00;;
10096;SDS011;5087;42.662;23.466;2023-05-07T00:05:53;0.00;;;0.00;;
10096;SDS011;5087;42.662;23.466;2023-05-07T00:08:21;0.00;;;0.00;;
10096;SDS011;5087;42.662;23.466;2023-05-07T00:10:48;0.00;;;0.00;;
10096;SDS011;5087;42.662;23.466;2023-05-07T00:13:14;0.00;;;0.00;;
10096;SDS011;5087;42.662;23.466;2023-05-07T00:15:41;0.00;;;0.00;;
10096;SDS011;5087;42.662;23.466;2023-05-07T00:18:08;0.00;;;0.00;;
10096;SDS011;5087;42.662;23.466;2023-05-07T00:20:35;0.00;;;0.00;;
10096;SDS011;5087;42.662;23.466;2023-05-07T00:23:02;0.00;;;0.00;;
10096;SDS011;5087;42.662;23.466;2023-05-07T00:25:30;0.10;;;0.10;;
10096;SDS011;5087;42.662;23.466;2023-05-07T00:27:57;0.00;;;0.00;;
10096;SDS011;5087;42.662;23.466;2023-05-07T00:30:28;0.00;;;0.00;;
10096;SDS011;5087;42.662;23.466;2023-05-07T00:32:55;0.00;;;0.00;;
10096;SDS011;5087;42.662;23.466;2023-05-07T00:35:22;0.00;;;0.00;;
10096;SDS011;5087;42.662;23.466;2023-05-07T00:37:49;0.00;;;0.00;;
10096;SDS011;5087;42.662;23.466;2023-05-07T00:40:16;0.00;;;0.00;;
10096;SDS011;5087;42.662;23.466;2023-05-07T00:42:45;0.00;;;0.00;;
10096;SDS011;5087;42.662;23.466;2023-05-07T00:45:14;0.07;;;0.07;;
10096;SDS011;5087;42.662;23.466;2023-05-07T00:47:41;0.00;;;0.00;;
10096;SDS011;5087;42.662;23.466;2023-05-07T00:50:09;0.10;;;0.10;;
10096;SDS011;5087;42.662;23.466;2023-05-07T00:52:37;0.20;;;0.20;;
10096;SDS011;5087;42.662;23.466;2023-05-07T00:55:05;0.50;;;0.50;;
10096;SDS011;5087;42.662;23.466;2023-05-07T00:57:33;0.00;;;0.00;;
10096;SDS011;5087;42.662;23.466;2023-05-07T01:00:05;0.00;;;0.00;;
10096;SDS011;5087;42.662;23.466;2023-05-07T01:02:33;2.10;;;1.10;;
10096;SDS011;5087;42.662;23.466;2023-05-07T01:05:01;0.00;;;0.00;;
10096;SDS011;5087;42.662;23.466;2023-05-07T01:07:28;0.10;;;0.10;;
10096;SDS011;5087;42.662;23.466;2023-05-07T01:09:55;0.00;;;0.00;;
10096;SDS011;5087;42.662;23.466;2023-05-07T01:12:23;0.00;;;0.00;;
10096;SDS011;5087;42.662;23.466;2023-05-07T01:14:51;0.00;;;0.00;;
10096;SDS011;5087;42.662;23.466;2023-05-07T01:17:19;0.00;;;0.00;;
10096;SDS011;5087;42.662;23.466;2023-05-07T01:19:46;0.00;;;0.00;;
10096;SDS011;5087;42.662;23.466;2023-05-07T01:22:15;0.00;;;0.00;;
10096;SDS011;5087;42.662;23.466;2023-05-07T01:24:50;0.00;;;0.00;;
10096;SDS011;5087;42.662;23.466;2023-05-07T01:27:16;0.00;;;0.00;;
10096;SDS011;5087;42.662;23.466;2023-05-07T01:29:43;0.00;;;0.00;;
10096;SDS011;5087;42.662;23.466;2023-05-07T01:32:10;0.00;;;0.00;;
10096;SDS011;5087;42.662;23.466;2023-05-07T01:34:38;0.00;;;0.00;;
10096;SDS011;5087;42.662;23.466;2023-05-07T01:37:06;0.00;;;0.00;;
10096;SDS011;5087;42.662;23.466;2023-05-07T01:39:33;0.00;;;0.00;;
10096;SDS011;5087;42.662;23.466;2023-05-07T01:42:03;0.30;;;0.30;;
10096;SDS011;5087;42.662;23.466;2023-05-07T01:44:30;0.00;;;0.00;;
10096;SDS011;5087;42.662;23.466;2023-05-07T01:46:57;0.40;;;0.17;;
10096;SDS011;5087;42.662;23.466;2023-05-07T01:49:24;0.00;;;0.00;;
10096;SDS011;5087;42.662;23.466;2023-05-07T01:51:51;0.00;;;0.00;;
10096;SDS011;5087;42.662;23.466;2023-05-07T01:54:17;0.67;;;0.30;;
10096;SDS011;5087;42.662;23.466;2023-05-07T01:56:46;0.00;;;0.00;;
10096;SDS011;5087;42.662;23.466;2023-05-07T01:59:15;0.00;;;0.00;;
10096;SDS011;5087;42.662;23.466;2023-05-07T02:01:43;0.00;;;0.00;;
10096;SDS011;5087;42.662;23.466;2023-05-07T02:04:10;0.00;;;0.00;;
10096;SDS011;5087;42.662;23.466;2023-05-07T02:06:38;0.00;;;0.00;;
10096;SDS011;5087;42.662;23.466;2023-05-07T02:09:07;0.00;;;0.00;;
10096;SDS011;5087;42.662;23.466;2023-05-07T02:11:37;0.17;;;0.17;;
10096;SDS011;5087;42.662;23.466;2023-05-07T02:14:05;0.03;;;0.03;;
10096;SDS011;5087;42.662;23.466;2023-05-07T02:16:33;0.00;;;0.00;;
10096;SDS011;5087;42.662;23.466;2023-05-07T02:19:01;0.00;;;0.00;;
10096;SDS011;5087;42.662;23.466;2023-05-07T02:21:28;0.00;;;0.00;;
10096;SDS011;5087;42.662;23.466;2023-05-07T02:23:55;0.00;;;0.00;;
10096;SDS011;5087;42.662;23.466;2023-05-07T02:26:21;0.00;;;0.00;;
10096;SDS011;5087;42.662;23.466;2023-05-07T02:28:48;0.00;;;0.00;;
10096;SDS011;5087;42.662;23.466;2023-05-07T02:31:17;0.00;;;0.00;;
10096;SDS011;5087;42.662;23.466;2023-05-07T02:33:45;0.00;;;0.00;;
10096;SDS011;5087;42.662;23.466;2023-05-07T02:36:13;0.00;;;0.00;;
10096;SDS011;5087;42.662;23.466;2023-05-07T02:38:54;0.00;;;0.00;;
10096;SDS011;5087;42.662;23.466;2023-05-07T02:41:21;0.03;;;0.03;;
10096;SDS011;5087;42.662;23.466;2023-05-07T02:43:47;0.00;;;0.00;;
10096;SDS011;5087;42.662;23.466;2023-05-07T02:46:14;0.00;;;0.00;;
10096;SDS011;5087;42.662;23.466;2023-05-07T02:48:47;0.00;;;0.00;;
10096;SDS011;5087;42.662;23.466;2023-05-07T02:51:14;0.00;;;0.00;;
10096;SDS011;5087;42.662;23.466;2023-05-07T02:53:42;0.10;;;0.10;;
10096;SDS011;5087;42.662;23.466;2023-05-07T02:56:09;0.10;;;0.10;;
10096;SDS011;5087;42.662;23.466;2023-05-07T02:58:35;0.00;;;0.00;;
10096;SDS011;5087;42.662;23.466;2023-05-07T03:01:04;0.13;;;0.13;;
10096;SDS011;5087;42.662;23.466;2023-05-07T03:03:52;0.17;;;0.17;;
10096;SDS011;5087;42.662;23.466;2023-05-07T03:06:19;0.00;;;0.00;;
10096;SDS011;5087;42.662;23.466;2023-05-07T03:08:45;0.20;;;0.17;;
10096;SDS011;5087;42.662;23.466;2023-05-07T03:11:12;0.00;;;0.00;;
10096;SDS011;5087;42.662;23.466;2023-05-07T03:13:40;0.30;;;0.30;;
10096;SDS011;5087;42.662;23.466;2023-05-07T03:16:07;0.20;;;0.20;;
10096;SDS011;5087;42.662;23.466;2023-05-07T03:18:37;0.20;;;0.20;;
10096;SDS011;5087;42.662;23.466;2023-05-07T03:21:05;0.00;;;0.00;;
10096;SDS011;5087;42.662;23.466;2023-05-07T03:23:32;1.50;;;0.37;;
10096;SDS011;5087;42.662;23.466;2023-05-07T03:25:59;0.03;;;0.03;;
10096;SDS011;5087;42.662;23.466;2023-05-07T03:28:26;0.27;;;0.27;;
10096;SDS011;5087;42.662;23.466;2023-05-07T03:30:58;0.00;;;0.00;;
10096;SDS011;5087;42.662;23.466;2023-05-07T03:33:25;0.00;;;0.00;;
10096;SDS011;5087;42.662;23.466;2023-05-07T03:35:53;0.00;;;0.00;;
10096;SDS011;5087;42.662;23.466;2023-05-07T03:38:24;0.00;;;0.00;;
10096;SDS011;5087;42.662;23.466;2023-05-07T03:40:51;0.47;;;0.20;;
10096;SDS011;5087;42.662;23.466;2023-05-07T03:43:18;0.00;;;0.00;;
10096;SDS011;5087;42.662;23.466;2023-05-07T03:45:50;0.00;;;0.00;;
10096;SDS011;5087;42.662;23.466;2023-05-07T03:48:24;0.00;;;0.00;;
10096;SDS011;5087;42.662;23.466;2023-05-07T03:50:54;0.00;;;0.00;;
10096;SDS011;5087;42.662;23.466;2023-05-07T03:53:21;0.00;;;0.00;;
10096;SDS011;5087;42.662;23.466;2023-05-07T03:55:49;0.00;;;0.00;;
10096;SDS011;5087;42.662;23.466;2023-05-07T03:58:16;0.00;;;0.00;;
10096;SDS011;5087;42.662;23.466;2023-05-07T04:00:43;0.00;;;0.00;;
10096;SDS011;5087;42.662;23.466;2023-05-07T04:03:21;0.00;;;0.00;;
10096;SDS011;5087;42.662;23.466;2023-05-07T04:05:48;0.00;;;0.00;;
10096;SDS011;5087;42.662;23.466;2023-05-07T04:08:16;0.13;;;0.13;;
10096;SDS011;5087;42.662;23.466;2023-05-07T04:10:46;0.00;;;0.00;;
10096;SDS011;5087;42.662;23.466;2023-05-07T04:13:15;0.00;;;0.00;;
10096;SDS011;5087;42.662;23.466;2023-05-07T04:15:43;0.20;;;0.20;;
10096;SDS011;5087;42.662;23.466;2023-05-07T04:18:14;0.00;;;0.00;;
10096;SDS011;5087;42.662;23.466;2023-05-07T04:20:43;0.00;;;0.00;;
10096;SDS011;5087;42.662;23.466;2023-05-07T04:23:13;0.00;;;0.00;;
10096;SDS011;5087;42.662;23.466;2023-05-07T04:25:40;0.10;;;0.10;;
10096;SDS011;5087;42.662;23.466;2023-05-07T04:28:23;0.20;;;0.20;;
10096;SDS011;5087;42.662;23.466;2023-05-07T04:30:50;0.00;;;0.00;;
10096;SDS011;5087;42.662;23.466;2023-05-07T04:33:19;0.00;;;0.00;;
10096;SDS011;5087;42.662;23.466;2023-05-07T04:35:48;0.10;;;0.10;;
10096;SDS011;5087;42.662;23.466;2023-05-07T04:38:15;0.20;;;0.20;;
10096;SDS011;5087;42.662;23.466;2023-05-07T04:40:44;0.10;;;0.10;;
10096;SDS011;5087;42.662;23.466;2023-05-07T04:43:16;0.37;;;0.37;;
10096;SDS011;5087;42.662;23.466;2023-05-07T04:45:49;0.30;;;0.30;;
10096;SDS011;5087;42.662;23.466;2023-05-07T04:48:16;0.70;;;0.70;;
10096;SDS011;5087;42.662;23.466;2023-05-07T04:50:46;0.40;;;0.40;;
10096;SDS011;5087;42.662;23.466;2023-05-07T04:53:14;0.40;;;0.40;;
10096;SDS011;5087;42.662;23.466;2023-05-07T04:55:41;0.50;;;0.50;;
10096;SDS011;5087;42.662;23.466;2023-05-07T04:58:08;0.40;;;0.40;;
10096;SDS011;5087;42.662;23.466;2023-05-07T05:00:37;0.70;;;0.70;;
10096;SDS011;5087;42.662;23.466;2023-05-07T05:03:07;1.00;;;1.00;;
10096;SDS011;5087;42.662;23.466;2023-05-07T05:05:36;0.90;;;0.90;;
10096;SDS011;5087;42.662;23.466;2023-05-07T05:08:03;1.20;;;1.20;;
10096;SDS011;5087;42.662;23.466;2023-05-07T05:10:31;1.17;;;1.17;;
10096;SDS011;5087;42.662;23.466;2023-05-07T05:12:57;1.50;;;1.50;;
10096;SDS011;5087;42.662;23.466;2023-05-07T05:15:26;2.40;;;2.40;;
10096;SDS011;5087;42.662;23.466;2023-05-07T05:17:53;2.50;;;2.50;;
10096;SDS011;5087;42.662;23.466;2023-05-07T05:20:21;3.00;;;3.00;;
10096;SDS011;5087;42.662;23.466;2023-05-07T05:22:48;3.57;;;3.57;;
10096;SDS011;5087;42.662;23.466;2023-05-07T05:25:15;3.77;;;3.77;;
10096;SDS011;5087;42.662;23.466;2023-05-07T05:27:42;4.33;;;4.23;;
10096;SDS011;5087;42.662;23.466;2023-05-07T05:30:10;4.53;;;4.43;;
10096;SDS011;5087;42.662;23.466;2023-05-07T05:32:38;4.10;;;4.00;;
10096;SDS011;5087;42.662;23.466;2023-05-07T05:35:05;5.30;;;5.00;;
10096;SDS011;5087;42.662;23.466;2023-05-07T05:37:34;4.30;;;4.20;;
10096;SDS011;5087;42.662;23.466;2023-05-07T05:40:06;5.10;;;5.00;;
10096;SDS011;5087;42.662;23.466;2023-05-07T05:42:34;4.50;;;4.40;;
10096;SDS011;5087;42.662;23.466;2023-05-07T05:45:03;3.70;;;3.70;;
10096;SDS011;5087;42.662;23.466;2023-05-07T05:47:32;3.40;;;3.40;;
10096;SDS011;5087;42.662;23.466;2023-05-07T05:49:59;3.60;;;3.60;;
10096;SDS011;5087;42.662;23.466;2023-05-07T05:52:26;3.70;;;3.70;;
10096;SDS011;5087;42.662;23.466;2023-05-07T05:54:56;4.30;;;4.20;;
10096;SDS011;5087;42.662;23.466;2023-05-07T05:57:24;4.10;;;4.00;;
10096;SDS011;5087;42.662;23.466;2023-05-07T05:59:51;3.90;;;3.90;;
10096;SDS011;5087;42.662;23.466;2023-05-07T06:02:18;4.53;;;4.43;;
10096;SDS011;5087;42.662;23.466;2023-05-07T06:04:45;4.23;;;4.13;;
10096;SDS011;5087;42.662;23.466;2023-05-07T06:07:16;4.50;;;4.40;;
10096;SDS011;5087;42.662;23.466;2023-05-07T06:09:43;4.47;;;4.37;;
10096;SDS011;5087;42.662;23.466;2023-05-07T06:12:12;4.30;;;4.20;;
10096;SDS011;5087;42.662;23.466;2023-05-07T06:14:39;4.60;;;4.50;;
10096;SDS011;5087;42.662;23.466;2023-05-07T06:17:07;4.80;;;4.70;;
10096;SDS011;5087;42.662;23.466;2023-05-07T06:19:34;4.43;;;4.33;;
10096;SDS011;5087;42.662;23.466;2023-05-07T06:22:04;4.77;;;4.67;;
10096;SDS011;5087;42.662;23.466;2023-05-07T06:24:32;4.70;;;4.60;;
10096;SDS011;5087;42.662;23.466;2023-05-07T06:26:59;5.93;;;5.83;;
10096;SDS011;5087;42.662;23.466;2023-05-07T06:29:30;5.40;;;5.30;;
10096;SDS011;5087;42.662;23.466;2023-05-07T06:32:05;4.70;;;4.60;;
10096;SDS011;5087;42.662;23.466;2023-05-07T06:34:33;5.37;;;5.27;;
10096;SDS011;5087;42.662;23.466;2023-05-07T06:37:00;5.80;;;5.67;;
10096;SDS011;5087;42.662;23.466;2023-05-07T06:39:37;5.63;;;5.53;;
10096;SDS011;5087;42.662;23.466;2023-05-07T06:42:04;5.70;;;5.60;;
10096;SDS011;5087;42.662;23.466;2023-05-07T06:44:34;5.30;;;5.20;;
10096;SDS011;5087;42.662;23.466;2023-05-07T06:47:06;5.43;;;5.33;;
10096;SDS011;5087;42.662;23.466;2023-05-07T06:49:34;5.20;;;5.10;;
10096;SDS011;5087;42.662;23.466;2023-05-07T06:52:01;4.93;;;4.83;;
10096;SDS011;5087;42.662;23.466;2023-05-07T06:54:28;5.63;;;5.53;;
10096;SDS011;5087;42.662;23.466;2023-05-07T06:56:56;5.50;;;5.40;;
10096;SDS011;5087;42.662;23.466;2023-05-07T06:59:24;5.13;;;5.03;;
10096;SDS011;5087;42.662;23.466;2023-05-07T07:01:53;5.10;;;5.00;;
10096;SDS011;5087;42.662;23.466;2023-05-07T07:04:20;5.77;;;5.67;;
10096;SDS011;5087;42.662;23.466;2023-05-07T07:06:56;5.97;;;5.87;;
10096;SDS011;5087;42.662;23.466;2023-05-07T07:09:23;6.47;;;6.27;;
10096;SDS011;5087;42.662;23.466;2023-05-07T07:11:52;5.67;;;5.57;;
10096;SDS011;5087;42.662;23.466;2023-05-07T07:14:19;5.57;;;5.47;;
10096;SDS011;5087;42.662;23.466;2023-05-07T07:16:49;5.70;;;5.60;;
10096;SDS011;5087;42.662;23.466;2023-05-07T07:19:20;5.63;;;5.53;;
10096;SDS011;5087;42.662;23.466;2023-05-07T07:21:49;7.20;;;6.67;;
10096;SDS011;5087;42.662;23.466;2023-05-07T07:24:16;5.90;;;5.80;;
10096;SDS011;5087;42.662;23.466;2023-05-07T07:26:48;5.80;;;5.70;;
10096;SDS011;5087;42.662;23.466;2023-05-07T07:29:15;5.67;;;5.57;;
10096;SDS011;5087;42.662;23.466;2023-05-07T07:31:44;5.77;;;5.67;;
10096;SDS011;5087;42.662;23.466;2023-05-07T07:34:11;5.83;;;5.73;;
10096;SDS011;5087;42.662;23.466;2023-05-07T07:36:40;5.50;;;5.40;;
10096;SDS011;5087;42.662;23.466;2023-05-07T07:39:08;5.90;;;5.80;;
10096;SDS011;5087;42.662;23.466;2023-05-07T07:41:35;5.60;;;5.50;;
10096;SDS011;5087;42.662;23.466;2023-05-07T07:44:03;5.37;;;5.27;;
10096;SDS011;5087;42.662;23.466;2023-05-07T07:46:34;4.93;;;4.83;;
10096;SDS011;5087;42.662;23.466;2023-05-07T07:49:02;5.10;;;5.00;;
10096;SDS011;5087;42.662;23.466;2023-05-07T07:51:29;5.30;;;5.20;;
10096;SDS011;5087;42.662;23.466;2023-05-07T07:53:59;5.10;;;5.00;;
10096;SDS011;5087;42.662;23.466;2023-05-07T07:56:31;5.40;;;5.30;;
10096;SDS011;5087;42.662;23.466;2023-05-07T07:58:58;5.23;;;5.13;;
10096;SDS011;5087;42.662;23.466;2023-05-07T08:01:25;5.50;;;5.40;;
10096;SDS011;5087;42.662;23.466;2023-05-07T08:03:52;5.53;;;5.43;;
10096;SDS011;5087;42.662;23.466;2023-05-07T08:06:20;5.00;;;4.90;;
10096;SDS011;5087;42.662;23.466;2023-05-07T08:08:48;5.50;;;5.40;;
10096;SDS011;5087;42.662;23.466;2023-05-07T08:11:17;4.50;;;4.40;;
10096;SDS011;5087;42.662;23.466;2023-05-07T08:13:46;4.10;;;4.00;;
10096;SDS011;5087;42.662;23.466;2023-05-07T08:16:13;4.30;;;4.20;;
10096;SDS011;5087;42.662;23.466;2023-05-07T08:18:40;4.20;;;4.10;;
10096;SDS011;5087;42.662;23.466;2023-05-07T08:21:07;3.43;;;3.43;;
10096;SDS011;5087;42.662;23.466;2023-05-07T08:23:34;3.00;;;3.00;;
10096;SDS011;5087;42.662;23.466;2023-05-07T08:26:03;2.87;;;2.87;;
10096;SDS011;5087;42.662;23.466;2023-05-07T08:28:31;2.90;;;2.90;;
10096;SDS011;5087;42.662;23.466;2023-05-07T08:30:58;2.70;;;2.70;;
10096;SDS011;5087;42.662;23.466;2023-05-07T08:33:29;2.00;;;2.00;;
10096;SDS011;5087;42.662;23.466;2023-05-07T08:35:56;2.30;;;2.30;;
10096;SDS011;5087;42.662;23.466;2023-05-07T08:38:24;2.50;;;2.50;;
10096;SDS011;5087;42.662;23.466;2023-05-07T08:40:51;2.67;;;2.67;;
10096;SDS011;5087;42.662;23.466;2023-05-07T08:43:19;2.60;;;2.50;;
10096;SDS011;5087;42.662;23.466;2023-05-07T08:45:48;2.60;;;2.60;;
10096;SDS011;5087;42.662;23.466;2023-05-07T08:48:18;2.70;;;2.70;;
10096;SDS011;5087;42.662;23.466;2023-05-07T08:50:52;2.40;;;2.40;;
10096;SDS011;5087;42.662;23.466;2023-05-07T08:53:20;2.00;;;2.00;;
10096;SDS011;5087;42.662;23.466;2023-05-07T08:55:48;2.10;;;2.10;;
10096;SDS011;5087;42.662;23.466;2023-05-07T08:58:16;1.90;;;1.90;;
10096;SDS011;5087;42.662;23.466;2023-05-07T09:00:42;1.90;;;1.90;;
10096;SDS011;5087;42.662;23.466;2023-05-07T09:03:12;1.80;;;1.80;;
10096;SDS011;5087;42.662;23.466;2023-05-07T09:05:42;1.50;;;1.50;;
10096;SDS011;5087;42.662;23.466;2023-05-07T09:08:14;1.50;;;1.50;;
10096;SDS011;5087;42.662;23.466;2023-05-07T09:10:41;1.50;;;1.50;;
10096;SDS011;5087;42.662;23.466;2023-05-07T09:13:08;1.50;;;1.50;;
10096;SDS011;5087;42.662;23.466;2023-05-07T09:15:38;1.40;;;1.40;;
10096;SDS011;5087;42.662;23.466;2023-05-07T09:18:05;1.40;;;1.40;;
10096;SDS011;5087;42.662;23.466;2023-05-07T09:20:35;1.30;;;1.30;;
10096;SDS011;5087;42.662;23.466;2023-05-07T09:23:03;1.60;;;1.60;;
10096;SDS011;5087;42.662;23.466;2023-05-07T09:25:30;1.50;;;1.50;;
10096;SDS011;5087;42.662;23.466;2023-05-07T09:28:03;1.10;;;1.10;;
10096;SDS011;5087;42.662;23.466;2023-05-07T09:30:31;1.10;;;1.10;;
10096;SDS011;5087;42.662;23.466;2023-05-07T09:33:01;1.30;;;1.30;;
10096;SDS011;5087;42.662;23.466;2023-05-07T09:35:28;1.20;;;1.20;;
10096;SDS011;5087;42.662;23.466;2023-05-07T09:38:01;1.20;;;1.20;;
10096;SDS011;5087;42.662;23.466;2023-05-07T09:40:31;1.17;;;1.17;;
10096;SDS011;5087;42.662;23.466;2023-05-07T09:43:08;1.20;;;1.20;;
10096;SDS011;5087;42.662;23.466;2023-05-07T09:45:36;1.30;;;1.30;;
10096;SDS011;5087;42.662;23.466;2023-05-07T09:48:04;1.07;;;1.07;;
10096;SDS011;5087;42.662;23.466;2023-05-07T09:50:32;1.10;;;1.10;;
10096;SDS011;5087;42.662;23.466;2023-05-07T09:53:07;1.33;;;1.33;;
10096;SDS011;5087;42.662;23.466;2023-05-07T09:55:36;1.20;;;1.20;;
10096;SDS011;5087;42.662;23.466;2023-05-07T09:58:04;1.27;;;1.27;;
10096;SDS011;5087;42.662;23.466;2023-05-07T10:00:32;1.10;;;1.10;;
10096;SDS011;5087;42.662;23.466;2023-05-07T10:03:07;1.10;;;1.10;;
10096;SDS011;5087;42.662;23.466;2023-05-07T10:05:42;1.07;;;1.07;;
10096;SDS011;5087;42.662;23.466;2023-05-07T10:08:13;1.03;;;1.03;;
10096;SDS011;5087;42.662;23.466;2023-05-07T10:10:44;1.00;;;1.00;;
10096;SDS011;5087;42.662;23.466;2023-05-07T10:13:15;1.20;;;1.20;;
10096;SDS011;5087;42.662;23.466;2023-05-07T10:15:46;1.40;;;1.40;;
10096;SDS011;5087;42.662;23.466;2023-05-07T10:18:14;1.07;;;1.07;;
10096;SDS011;5087;42.662;23.466;2023-05-07T10:20:46;1.00;;;1.00;;
10096;SDS011;5087;42.662;23.466;2023-05-07T10:23:17;1.00;;;1.00;;
10096;SDS011;5087;42.662;23.466;2023-05-07T10:25:47;1.00;;;1.00;;
10096;SDS011;5087;42.662;23.466;2023-05-07T10:28:22;1.10;;;1.10;;
10096;SDS011;5087;42.662;23.466;2023-05-07T10:30:55;1.20;;;1.20;;
10096;SDS011;5087;42.662;23.466;2023-05-07T10:33:31;1.03;;;1.03;;
10096;SDS011;5087;42.662;23.466;2023-05-07T10:36:01;1.30;;;1.30;;
10096;SDS011;5087;42.662;23.466;2023-05-07T10:38:32;1.10;;;1.10;;
10096;SDS011;5087;42.662;23.466;2023-05-07T10:41:00;1.03;;;1.03;;
10096;SDS011;5087;42.662;23.466;2023-05-07T10:43:38;1.03;;;1.03;;
10096;SDS011;5087;42.662;23.466;2023-05-07T10:46:09;1.10;;;1.10;;
10096;SDS011;5087;42.662;23.466;2023-05-07T10:51:20;1.17;;;1.17;;
10096;SDS011;5087;42.662;23.466;2023-05-07T10:56:35;1.30;;;1.30;;
10096;SDS011;5087;42.662;23.466;2023-05-07T10:59:30;1.10;;;1.10;;
10096;SDS011;5087;42.662;23.466;2023-05-07T11:02:04;1.10;;;1.10;;
10096;SDS011;5087;42.662;23.466;2023-05-07T11:04:41;1.03;;;1.03;;
10096;SDS011;5087;42.662;23.466;2023-05-07T11:10:05;1.20;;;1.20;;
10096;SDS011;5087;42.662;23.466;2023-05-07T11:12:48;1.00;;;1.00;;
10096;SDS011;5087;42.662;23.466;2023-05-07T11:15:42;0.97;;;0.97;;
10096;SDS011;5087;42.662;23.466;2023-05-07T11:18:17;0.93;;;0.93;;
10096;SDS011;5087;42.662;23.466;2023-05-07T11:20:47;1.00;;;1.00;;
10096;SDS011;5087;42.662;23.466;2023-05-07T11:26:48;1.20;;;1.20;;
10096;SDS011;5087;42.662;23.466;2023-05-07T11:29:19;1.00;;;1.00;;
10096;SDS011;5087;42.662;23.466;2023-05-07T11:31:51;1.00;;;1.00;;
10096;SDS011;5087;42.662;23.466;2023-05-07T11:34:20;0.93;;;0.93;;
10096;SDS011;5087;42.662;23.466;2023-05-07T11:36:52;1.20;;;1.20;;
10096;SDS011;5087;42.662;23.466;2023-05-07T11:39:38;1.10;;;1.10;;
10096;SDS011;5087;42.662;23.466;2023-05-07T11:42:05;1.10;;;1.10;;
10096;SDS011;5087;42.662;23.466;2023-05-07T11:44:44;1.10;;;1.10;;
10096;SDS011;5087;42.662;23.466;2023-05-07T11:47:12;0.83;;;0.83;;
10096;SDS011;5087;42.662;23.466;2023-05-07T11:49:43;1.00;;;1.00;;
10096;SDS011;5087;42.662;23.466;2023-05-07T11:52:10;1.00;;;1.00;;
10096;SDS011;5087;42.662;23.466;2023-05-07T11:54:41;1.10;;;1.10;;
10096;SDS011;5087;42.662;23.466;2023-05-07T11:57:14;1.20;;;1.20;;
10096;SDS011;5087;42.662;23.466;2023-05-07T11:59:41;1.33;;;1.33;;
10096;SDS011;5087;42.662;23.466;2023-05-07T12:02:11;0.90;;;0.90;;
10096;SDS011;5087;42.662;23.466;2023-05-07T12:04:39;0.97;;;0.97;;
10096;SDS011;5087;42.662;23.466;2023-05-07T12:07:10;1.20;;;1.20;;
10096;SDS011;5087;42.662;23.466;2023-05-07T12:09:37;0.90;;;0.90;;
10096;SDS011;5087;42.662;23.466;2023-05-07T12:12:04;1.00;;;1.00;;
10096;SDS011;5087;42.662;23.466;2023-05-07T12:14:31;0.90;;;0.90;;
10096;SDS011;5087;42.662;23.466;2023-05-07T12:17:01;1.07;;;1.07;;
10096;SDS011;5087;42.662;23.466;2023-05-07T12:19:31;1.10;;;1.10;;
10096;SDS011;5087;42.662;23.466;2023-05-07T12:21:58;1.00;;;1.00;;
10096;SDS011;5087;42.662;23.466;2023-05-07T12:24:25;1.20;;;1.20;;
10096;SDS011;5087;42.662;23.466;2023-05-07T12:26:52;1.10;;;1.10;;
10096;SDS011;5087;42.662;23.466;2023-05-07T12:29:21;1.00;;;1.00;;
10096;SDS011;5087;42.662;23.466;2023-05-07T12:31:48;1.03;;;1.03;;
10096;SDS011;5087;42.662;23.466;2023-05-07T12:34:15;1.00;;;1.00;;
10096;SDS011;5087;42.662;23.466;2023-05-07T12:36:45;0.97;;;0.97;;
10096;SDS011;5087;42.662;23.466;2023-05-07T12:39:14;1.10;;;1.10;;
10096;SDS011;5087;42.662;23.466;2023-05-07T12:41:53;1.00;;;1.00;;
10096;SDS011;5087;42.662;23.466;2023-05-07T12:44:21;1.23;;;1.23;;
10096;SDS011;5087;42.662;23.466;2023-05-07T12:46:48;1.20;;;1.20;;
10096;SDS011;5087;42.662;23.466;2023-05-07T12:49:17;0.83;;;0.83;;
10096;SDS011;5087;42.662;23.466;2023-05-07T12:51:46;2.80;;;1.37;;
10096;SDS011;5087;42.662;23.466;2023-05-07T12:54:13;0.97;;;0.97;;
10096;SDS011;5087;42.662;23.466;2023-05-07T12:56:39;0.97;;;0.97;;
10096;SDS011;5087;42.662;23.466;2023-05-07T12:59:06;0.90;;;0.90;;
10096;SDS011;5087;42.662;23.466;2023-05-07T13:01:33;1.10;;;1.10;;
10096;SDS011;5087;42.662;23.466;2023-05-07T13:04:02;1.20;;;1.20;;
10096;SDS011;5087;42.662;23.466;2023-05-07T13:06:30;1.10;;;1.10;;
10096;SDS011;5087;42.662;23.466;2023-05-07T13:08:59;1.33;;;1.33;;
10096;SDS011;5087;42.662;23.466;2023-05-07T13:11:25;1.90;;;1.80;;
10096;SDS011;5087;42.662;23.466;2023-05-07T13:13:52;1.07;;;1.07;;
10096;SDS011;5087;42.662;23.466;2023-05-07T13:16:19;1.10;;;1.10;;
10096;SDS011;5087;42.662;23.466;2023-05-07T13:18:46;1.43;;;1.43;;
10096;SDS011;5087;42.662;23.466;2023-05-07T13:21:13;2.27;;;1.63;;
10096;SDS011;5087;42.662;23.466;2023-05-07T13:23:40;0.80;;;0.80;;
10096;SDS011;5087;42.662;23.466;2023-05-07T13:26:08;0.90;;;0.90;;
10096;SDS011;5087;42.662;23.466;2023-05-07T13:28:38;1.40;;;1.40;;
10096;SDS011;5087;42.662;23.466;2023-05-07T13:31:09;0.97;;;0.97;;
10096;SDS011;5087;42.662;23.466;2023-05-07T13:33:39;1.00;;;1.00;;
10096;SDS011;5087;42.662;23.466;2023-05-07T13:36:06;0.90;;;0.90;;
10096;SDS011;5087;42.662;23.466;2023-05-07T13:38:33;1.17;;;1.17;;
10096;SDS011;5087;42.662;23.466;2023-05-07T13:41:00;0.93;;;0.93;;
10096;SDS011;5087;42.662;23.466;2023-05-07T13:43:28;1.20;;;1.20;;
10096;SDS011;5087;42.662;23.466;2023-05-07T13:45:55;1.30;;;1.30;;
10096;SDS011;5087;42.662;23.466;2023-05-07T13:48:22;1.10;;;1.10;;
10096;SDS011;5087;42.662;23.466;2023-05-07T13:50:49;1.10;;;1.10;;
10096;SDS011;5087;42.662;23.466;2023-05-07T13:53:15;1.10;;;1.10;;
10096;SDS011;5087;42.662;23.466;2023-05-07T13:55:43;0.90;;;0.90;;
10096;SDS011;5087;42.662;23.466;2023-05-07T13:58:10;1.00;;;1.00;;
10096;SDS011;5087;42.662;23.466;2023-05-07T14:00:39;1.00;;;1.00;;
10096;SDS011;5087;42.662;23.466;2023-05-07T14:03:06;0.97;;;0.97;;
10096;SDS011;5087;42.662;23.466;2023-05-07T14:05:33;0.90;;;0.90;;
10096;SDS011;5087;42.662;23.466;2023-05-07T14:08:00;0.90;;;0.90;;
10096;SDS011;5087;42.662;23.466;2023-05-07T14:10:27;1.00;;;1.00;;
10096;SDS011;5087;42.662;23.466;2023-05-07T14:12:55;1.00;;;1.00;;
10096;SDS011;5087;42.662;23.466;2023-05-07T14:15:22;1.00;;;1.00;;
10096;SDS011;5087;42.662;23.466;2023-05-07T14:17:50;1.00;;;1.00;;
10096;SDS011;5087;42.662;23.466;2023-05-07T14:20:18;1.00;;;1.00;;
10096;SDS011;5087;42.662;23.466;2023-05-07T14:22:47;1.00;;;1.00;;
10096;SDS011;5087;42.662;23.466;2023-05-07T14:25:14;1.10;;;1.10;;
10096;SDS011;5087;42.662;23.466;2023-05-07T14:27:44;1.10;;;1.10;;
10096;SDS011;5087;42.662;23.466;2023-05-07T14:30:11;1.00;;;1.00;;
10096;SDS011;5087;42.662;23.466;2023-05-07T14:32:38;1.20;;;1.20;;
10096;SDS011;5087;42.662;23.466;2023-05-07T14:35:07;1.17;;;1.17;;
10096;SDS011;5087;42.662;23.466;2023-05-07T14:37:34;1.10;;;1.10;;
10096;SDS011;5087;42.662;23.466;2023-05-07T14:40:04;1.10;;;1.10;;
10096;SDS011;5087;42.662;23.466;2023-05-07T14:42:31;0.90;;;0.90;;
10096;SDS011;5087;42.662;23.466;2023-05-07T14:44:58;0.90;;;0.90;;
10096;SDS011;5087;42.662;23.466;2023-05-07T14:47:25;1.00;;;1.00;;
10096;SDS011;5087;42.662;23.466;2023-05-07T14:49:52;1.20;;;1.20;;
10096;SDS011;5087;42.662;23.466;2023-05-07T14:52:20;1.00;;;1.00;;
10096;SDS011;5087;42.662;23.466;2023-05-07T14:54:47;1.00;;;1.00;;
10096;SDS011;5087;42.662;23.466;2023-05-07T14:57:14;0.93;;;0.93;;
10096;SDS011;5087;42.662;23.466;2023-05-07T14:59:41;1.00;;;1.00;;
10096;SDS011;5087;42.662;23.466;2023-05-07T15:02:08;0.90;;;0.90;;
10096;SDS011;5087;42.662;23.466;2023-05-07T15:04:40;0.90;;;0.90;;
10096;SDS011;5087;42.662;23.466;2023-05-07T15:07:11;0.90;;;0.90;;
10096;SDS011;5087;42.662;23.466;2023-05-07T15:09:41;0.97;;;0.97;;